Check out our new PWSWeather beta!
PWSweather.com
Personal Weather Stations
Station Observations
KIMITO
Ängskulla, KimitoFI 25700

ÄngskullaKimitoFI 25700

Lat: 60.174645, Lon: 22.726327

Elevation: 36

Station Type: Davis Vantage VUE

www.pvuorio.net

High Low Average
Temperature 37.2°F2.9°C 25.1°F-3.8°C 31.6°F-0.2°C
Dew Point 33.5°F0.8°C 23.9°F-4.5°C 29.2°F-1.6°C
Winds 4.6 mph 7.4 kmh Calm Calm 1.0 mph S1.6 kmh S
Wind Gusts 9.2 mph14.8 kmh -- 1.0 mph1.6 kmh
Humidity 97% 82% 91%
Pressure 30.13 in1020.3 mb 29.67 in1004.7 mb -
Precipitation 0.00 in0.0 mm - -
Hour Temp Dew Point Humidity Winds Wind Gusts Pressure Precip Precip Rate Daily Precip Total
12:01 AM 33.9°F1.1°C 29.8°F-1.2°C 85% 3.4 mph N5.5 kmh N 5.8 mph9.3 kmh 30.10 in1019.3 mb - 0.00 in0.0 mm 0.00 in0.0 mm
12:07 AM 33.7°F0.9°C 29.7°F-1.3°C 85% 3.4 mph NNE5.5 kmh NNE 4.6 mph7.4 kmh 30.11 in1019.6 mb - 0.00 in0.0 mm 0.00 in0.0 mm
12:13 AM 33.7°F0.9°C 29.7°F-1.3°C 85% 1.1 mph N1.8 kmh N 3.4 mph5.5 kmh 30.11 in1019.6 mb - 0.00 in0.0 mm 0.00 in0.0 mm
12:18 AM 33.4°F0.8°C 29.7°F-1.3°C 86% 2.3 mph NE3.7 kmh NE 3.4 mph5.5 kmh 30.11 in1019.6 mb - 0.00 in0.0 mm 0.00 in0.0 mm
12:24 AM 33.3°F0.7°C 29.6°F-1.3°C 86% Calm Calm 1.1 mph1.8 kmh 30.11 in1019.6 mb - 0.00 in0.0 mm 0.00 in0.0 mm
12:30 AM 33.1°F0.6°C 29.4°F-1.4°C 86% 2.3 mph N3.7 kmh N 3.4 mph5.5 kmh 30.11 in1019.6 mb - 0.00 in0.0 mm 0.00 in0.0 mm
12:35 AM 32.9°F0.5°C 29.2°F-1.6°C 86% 1.1 mph NW1.8 kmh NW 2.3 mph3.7 kmh 30.11 in1019.6 mb - 0.00 in0.0 mm 0.00 in0.0 mm
12:41 AM 32.6°F0.3°C 28.8°F-1.8°C 86% 1.1 mph NNW1.8 kmh NNW 1.1 mph1.8 kmh 30.11 in1019.6 mb - 0.00 in0.0 mm 0.00 in0.0 mm
12:46 AM 32.5°F0.3°C 28.8°F-1.8°C 86% Calm Calm 3.4 mph5.5 kmh 30.11 in1019.6 mb - 0.00 in0.0 mm 0.00 in0.0 mm
12:52 AM 32.1°F0.1°C 28.7°F-1.8°C 87% 1.1 mph NNW1.8 kmh NNW 2.3 mph3.7 kmh 30.11 in1019.6 mb - 0.00 in0.0 mm 0.00 in0.0 mm
12:58 AM 32.0°F0.0°C 28.6°F-1.9°C 87% 1.1 mph N1.8 kmh N 1.1 mph1.8 kmh 30.11 in1019.6 mb - 0.00 in0.0 mm 0.00 in0.0 mm
01:03 AM 31.7°F-0.2°C 28.6°F-1.9°C 88% 1.1 mph N1.8 kmh N 2.3 mph3.7 kmh 30.11 in1019.6 mb - 0.00 in0.0 mm 0.00 in0.0 mm
01:09 AM 31.6°F-0.2°C 28.5°F-1.9°C 88% 1.1 mph NW1.8 kmh NW 2.3 mph3.7 kmh 30.11 in1019.6 mb - 0.00 in0.0 mm 0.00 in0.0 mm
01:15 AM 31.5°F-0.3°C 28.1°F-2.2°C 87% 1.1 mph N1.8 kmh N 1.1 mph1.8 kmh 30.11 in1019.6 mb - 0.00 in0.0 mm 0.00 in0.0 mm
01:20 AM 31.6°F-0.2°C 28.2°F-2.1°C 87% Calm Calm 1.1 mph1.8 kmh 30.12 in1020.0 mb - 0.00 in0.0 mm 0.00 in0.0 mm
01:26 AM 30.9°F-0.6°C 27.5°F-2.5°C 87% Calm Calm -- 30.11 in1019.6 mb - 0.00 in0.0 mm 0.00 in0.0 mm
01:31 AM 30.7°F-0.7°C 27.3°F-2.6°C 87% Calm Calm -- 30.11 in1019.6 mb - 0.00 in0.0 mm 0.00 in0.0 mm
01:37 AM 30.1°F-1.1°C 27.3°F-2.6°C 89% Calm Calm -- 30.12 in1020.0 mb - 0.00 in0.0 mm 0.00 in0.0 mm
01:43 AM 30.0°F-1.1°C 27.2°F-2.7°C 89% Calm Calm -- 30.12 in1020.0 mb - 0.00 in0.0 mm 0.00 in0.0 mm
01:48 AM 29.5°F-1.4°C 27.0°F-2.8°C 90% Calm Calm -- 30.12 in1020.0 mb - 0.00 in0.0 mm 0.00 in0.0 mm
01:54 AM 29.1°F-1.6°C 26.5°F-3.1°C 90% Calm Calm -- 30.12 in1020.0 mb - 0.00 in0.0 mm 0.00 in0.0 mm
02:00 AM 28.8°F-1.8°C 26.5°F-3.1°C 91% Calm Calm -- 30.12 in1020.0 mb - 0.00 in0.0 mm 0.00 in0.0 mm
02:05 AM 28.6°F-1.9°C 26.3°F-3.2°C 91% Calm Calm -- 30.12 in1020.0 mb - 0.00 in0.0 mm 0.00 in0.0 mm
02:11 AM 27.9°F-2.3°C 25.6°F-3.6°C 91% Calm Calm -- 30.12 in1020.0 mb - 0.00 in0.0 mm 0.00 in0.0 mm
02:16 AM 27.9°F-2.3°C 25.8°F-3.4°C 92% Calm Calm -- 30.12 in1020.0 mb - 0.00 in0.0 mm 0.00 in0.0 mm
02:22 AM 27.3°F-2.6°C 25.3°F-3.7°C 92% Calm Calm -- 30.12 in1020.0 mb - 0.00 in0.0 mm 0.00 in0.0 mm
02:28 AM 27.3°F-2.6°C 25.3°F-3.7°C 92% Calm Calm -- 30.12 in1020.0 mb - 0.00 in0.0 mm 0.00 in0.0 mm
02:33 AM 27.0°F-2.8°C 25.2°F-3.8°C 93% Calm Calm -- 30.13 in1020.3 mb - 0.00 in0.0 mm 0.00 in0.0 mm
02:39 AM 26.8°F-2.9°C 25.0°F-3.9°C 93% Calm Calm -- 30.13 in1020.3 mb - 0.00 in0.0 mm 0.00 in0.0 mm
02:45 AM 26.5°F-3.1°C 24.8°F-4.0°C 93% Calm Calm -- 30.13 in1020.3 mb - 0.00 in0.0 mm 0.00 in0.0 mm
02:50 AM 26.5°F-3.1°C 25.0°F-3.9°C 94% Calm Calm -- 30.13 in1020.3 mb - 0.00 in0.0 mm 0.00 in0.0 mm
02:56 AM 26.0°F-3.3°C 24.3°F-4.3°C 93% Calm Calm -- 30.13 in1020.3 mb - 0.00 in0.0 mm 0.00 in0.0 mm
03:01 AM 26.0°F-3.3°C 24.5°F-4.2°C 94% Calm Calm -- 30.13 in1020.3 mb - 0.00 in0.0 mm 0.00 in0.0 mm
03:07 AM 25.8°F-3.4°C 24.3°F-4.3°C 94% Calm Calm -- 30.13 in1020.3 mb - 0.00 in0.0 mm 0.00 in0.0 mm
03:13 AM 25.8°F-3.4°C 24.3°F-4.3°C 94% Calm Calm -- 30.13 in1020.3 mb - 0.00 in0.0 mm 0.00 in0.0 mm
03:18 AM 25.6°F-3.6°C 24.1°F-4.4°C 94% Calm Calm -- 30.13 in1020.3 mb - 0.00 in0.0 mm 0.00 in0.0 mm
03:24 AM 25.4°F-3.7°C 23.9°F-4.5°C 94% Calm Calm -- 30.13 in1020.3 mb - 0.00 in0.0 mm 0.00 in0.0 mm
03:30 AM 25.3°F-3.7°C 24.1°F-4.4°C 95% Calm Calm -- 30.13 in1020.3 mb - 0.00 in0.0 mm 0.00 in0.0 mm
03:35 AM 25.3°F-3.7°C 24.1°F-4.4°C 95% Calm Calm -- 30.13 in1020.3 mb - 0.00 in0.0 mm 0.00 in0.0 mm
03:41 AM 25.6°F-3.6°C 24.4°F-4.2°C 95% Calm Calm -- 30.13 in1020.3 mb - 0.00 in0.0 mm 0.00 in0.0 mm
03:46 AM 25.6°F-3.6°C 24.4°F-4.2°C 95% Calm Calm -- 30.13 in1020.3 mb - 0.00 in0.0 mm 0.00 in0.0 mm
03:52 AM 25.6°F-3.6°C 24.3°F-4.3°C 95% Calm Calm -- 30.12 in1020.0 mb - 0.00 in0.0 mm 0.00 in0.0 mm
03:58 AM 25.9°F-3.4°C 25.0°F-3.9°C 96% Calm Calm -- 30.12 in1020.0 mb - 0.00 in0.0 mm 0.00 in0.0 mm
04:03 AM 26.1°F-3.3°C 25.1°F-3.8°C 96% Calm Calm -- 30.13 in1020.3 mb - 0.00 in0.0 mm 0.00 in0.0 mm
04:09 AM 26.1°F-3.3°C 24.9°F-3.9°C 95% Calm Calm -- 30.12 in1020.0 mb - 0.00 in0.0 mm 0.00 in0.0 mm
04:15 AM 25.8°F-3.4°C 24.6°F-4.1°C 95% Calm Calm -- 30.13 in1020.3 mb - 0.00 in0.0 mm 0.00 in0.0 mm
04:20 AM 25.6°F-3.6°C 24.4°F-4.2°C 95% Calm Calm -- 30.13 in1020.3 mb - 0.00 in0.0 mm 0.00 in0.0 mm
04:26 AM 25.8°F-3.4°C 24.8°F-4.0°C 96% Calm Calm -- 30.13 in1020.3 mb - 0.00 in0.0 mm 0.00 in0.0 mm
04:31 AM 25.8°F-3.4°C 24.8°F-4.0°C 96% Calm Calm -- 30.13 in1020.3 mb - 0.00 in0.0 mm 0.00 in0.0 mm
04:37 AM 25.7°F-3.5°C 24.7°F-4.1°C 96% Calm Calm -- 30.13 in1020.3 mb - 0.00 in0.0 mm 0.00 in0.0 mm
04:43 AM 25.9°F-3.4°C 24.9°F-3.9°C 96% Calm Calm -- 30.13 in1020.3 mb - 0.00 in0.0 mm 0.00 in0.0 mm
04:48 AM 25.9°F-3.4°C 24.9°F-3.9°C 96% Calm Calm -- 30.13 in1020.3 mb - 0.00 in0.0 mm 0.00 in0.0 mm
04:54 AM 25.8°F-3.4°C 24.8°F-4.0°C 96% Calm Calm -- 30.12 in1020.0 mb - 0.00 in0.0 mm 0.00 in0.0 mm
05:00 AM 25.4°F-3.7°C 24.4°F-4.2°C 96% Calm Calm -- 30.12 in1020.0 mb - 0.00 in0.0 mm 0.00 in0.0 mm
05:05 AM 25.4°F-3.7°C 24.2°F-4.3°C 95% Calm Calm -- 30.12 in1020.0 mb - 0.00 in0.0 mm 0.00 in0.0 mm
05:11 AM 25.4°F-3.7°C 24.4°F-4.2°C 96% Calm Calm -- 30.12 in1020.0 mb - 0.00 in0.0 mm 0.00 in0.0 mm
05:16 AM 25.4°F-3.7°C 24.4°F-4.2°C 96% Calm Calm -- 30.12 in1020.0 mb - 0.00 in0.0 mm 0.00 in0.0 mm
05:22 AM 25.1°F-3.8°C 24.1°F-4.4°C 96% Calm Calm -- 30.12 in1020.0 mb - 0.00 in0.0 mm 0.00 in0.0 mm
05:28 AM 25.2°F-3.8°C 24.2°F-4.3°C 96% Calm Calm -- 30.12 in1020.0 mb - 0.00 in0.0 mm 0.00 in0.0 mm
05:33 AM 25.4°F-3.7°C 24.4°F-4.2°C 96% Calm Calm -- 30.11 in1019.6 mb - 0.00 in0.0 mm 0.00 in0.0 mm
05:39 AM 25.3°F-3.7°C 24.3°F-4.3°C 96% Calm Calm -- 30.11 in1019.6 mb - 0.00 in0.0 mm 0.00 in0.0 mm
05:45 AM 25.6°F-3.6°C 24.6°F-4.1°C 96% Calm Calm -- 30.11 in1019.6 mb - 0.00 in0.0 mm 0.00 in0.0 mm
05:50 AM 25.7°F-3.5°C 24.7°F-4.1°C 96% Calm Calm -- 30.11 in1019.6 mb - 0.00 in0.0 mm 0.00 in0.0 mm
05:56 AM 25.6°F-3.6°C 24.7°F-4.1°C 96% Calm Calm -- 30.11 in1019.6 mb - 0.00 in0.0 mm 0.00 in0.0 mm
06:01 AM 25.4°F-3.7°C 24.5°F-4.2°C 96% Calm Calm -- 30.11 in1019.6 mb - 0.00 in0.0 mm 0.00 in0.0 mm
06:07 AM 25.2°F-3.8°C 24.2°F-4.3°C 96% Calm Calm -- 30.11 in1019.6 mb - 0.00 in0.0 mm 0.00 in0.0 mm
06:13 AM 25.2°F-3.8°C 24.2°F-4.3°C 96% Calm Calm -- 30.11 in1019.6 mb - 0.00 in0.0 mm 0.00 in0.0 mm
06:18 AM 25.4°F-3.7°C 24.7°F-4.1°C 97% Calm Calm -- 30.11 in1019.6 mb - 0.00 in0.0 mm 0.00 in0.0 mm
06:24 AM 25.3°F-3.7°C 24.3°F-4.3°C 96% Calm Calm -- 30.11 in1019.6 mb - 0.00 in0.0 mm 0.00 in0.0 mm
06:30 AM 25.3°F-3.7°C 24.3°F-4.3°C 96% Calm Calm -- 30.11 in1019.6 mb - 0.00 in0.0 mm 0.00 in0.0 mm
06:35 AM 25.3°F-3.7°C 24.3°F-4.3°C 96% Calm Calm -- 30.10 in1019.3 mb - 0.00 in0.0 mm 0.00 in0.0 mm
06:41 AM 25.8°F-3.4°C 25.1°F-3.8°C 97% Calm Calm -- 30.10 in1019.3 mb - 0.00 in0.0 mm 0.00 in0.0 mm
06:46 AM 25.9°F-3.4°C 25.1°F-3.8°C 97% Calm Calm -- 30.10 in1019.3 mb - 0.00 in0.0 mm 0.00 in0.0 mm
06:52 AM 25.9°F-3.4°C 25.2°F-3.8°C 97% Calm Calm -- 30.09 in1019.0 mb - 0.00 in0.0 mm 0.00 in0.0 mm
06:58 AM 25.9°F-3.4°C 25.2°F-3.8°C 97% Calm Calm -- 30.10 in1019.3 mb - 0.00 in0.0 mm 0.00 in0.0 mm
07:03 AM 26.0°F-3.3°C 25.2°F-3.8°C 97% Calm Calm -- 30.10 in1019.3 mb - 0.00 in0.0 mm 0.00 in0.0 mm
07:09 AM 26.0°F-3.3°C 25.3°F-3.7°C 97% Calm Calm -- 30.10 in1019.3 mb - 0.00 in0.0 mm 0.00 in0.0 mm
07:15 AM 26.6°F-3.0°C 25.9°F-3.4°C 97% Calm Calm -- 30.10 in1019.3 mb - 0.00 in0.0 mm 0.00 in0.0 mm
07:20 AM 26.7°F-2.9°C 26.0°F-3.3°C 97% Calm Calm -- 30.10 in1019.3 mb - 0.00 in0.0 mm 0.00 in0.0 mm
07:26 AM 27.3°F-2.6°C 26.6°F-3.0°C 97% Calm Calm 1.1 mph1.8 kmh 30.10 in1019.3 mb - 0.00 in0.0 mm 0.00 in0.0 mm
07:31 AM 27.5°F-2.5°C 26.8°F-2.9°C 97% Calm Calm -- 30.10 in1019.3 mb - 0.00 in0.0 mm 0.00 in0.0 mm
07:37 AM 28.0°F-2.2°C 27.3°F-2.6°C 97% Calm Calm 1.1 mph1.8 kmh 30.09 in1019.0 mb - 0.00 in0.0 mm 0.00 in0.0 mm
07:43 AM 28.0°F-2.2°C 27.3°F-2.6°C 97% Calm Calm 1.1 mph1.8 kmh 30.09 in1019.0 mb - 0.00 in0.0 mm 0.00 in0.0 mm
07:48 AM 28.3°F-2.1°C 27.6°F-2.4°C 97% Calm Calm -- 30.09 in1019.0 mb - 0.00 in0.0 mm 0.00 in0.0 mm
07:54 AM 28.2°F-2.1°C 27.5°F-2.5°C 97% Calm Calm -- 30.09 in1019.0 mb - 0.00 in0.0 mm 0.00 in0.0 mm
08:00 AM 28.1°F-2.2°C 27.4°F-2.6°C 97% Calm Calm -- 30.09 in1019.0 mb - 0.00 in0.0 mm 0.00 in0.0 mm
08:05 AM 28.1°F-2.2°C 27.3°F-2.6°C 97% Calm Calm -- 30.09 in1019.0 mb - 0.00 in0.0 mm 0.00 in0.0 mm
08:11 AM 28.0°F-2.2°C 27.3°F-2.6°C 97% Calm Calm -- 30.08 in1018.6 mb - 0.00 in0.0 mm 0.00 in0.0 mm
08:16 AM 28.0°F-2.2°C 27.3°F-2.6°C 97% Calm Calm -- 30.08 in1018.6 mb - 0.00 in0.0 mm 0.00 in0.0 mm
08:22 AM 28.0°F-2.2°C 27.3°F-2.6°C 97% Calm Calm -- 30.08 in1018.6 mb - 0.00 in0.0 mm 0.00 in0.0 mm
08:28 AM 27.9°F-2.3°C 27.2°F-2.7°C 97% Calm Calm -- 30.08 in1018.6 mb - 0.00 in0.0 mm 0.00 in0.0 mm
08:33 AM 27.7°F-2.4°C 27.0°F-2.8°C 97% Calm Calm -- 30.07 in1018.3 mb - 0.00 in0.0 mm 0.00 in0.0 mm
08:39 AM 27.7°F-2.4°C 27.0°F-2.8°C 97% Calm Calm -- 30.07 in1018.3 mb - 0.00 in0.0 mm 0.00 in0.0 mm
08:45 AM 27.7°F-2.4°C 27.0°F-2.8°C 97% Calm Calm 1.1 mph1.8 kmh 30.07 in1018.3 mb - 0.00 in0.0 mm 0.00 in0.0 mm
08:50 AM 27.7°F-2.4°C 27.0°F-2.8°C 97% Calm Calm 1.1 mph1.8 kmh 30.07 in1018.3 mb - 0.00 in0.0 mm 0.00 in0.0 mm
08:56 AM 27.7°F-2.4°C 27.0°F-2.8°C 97% Calm Calm -- 30.07 in1018.3 mb - 0.00 in0.0 mm 0.00 in0.0 mm
09:01 AM 27.5°F-2.5°C 26.8°F-2.9°C 97% Calm Calm 1.1 mph1.8 kmh 30.07 in1018.3 mb - 0.00 in0.0 mm 0.00 in0.0 mm
09:07 AM 27.2°F-2.7°C 26.5°F-3.1°C 97% Calm Calm -- 30.07 in1018.3 mb - 0.00 in0.0 mm 0.00 in0.0 mm
09:13 AM 27.2°F-2.7°C 26.5°F-3.1°C 97% Calm Calm -- 30.07 in1018.3 mb - 0.00 in0.0 mm 0.00 in0.0 mm
09:18 AM 27.3°F-2.6°C 26.6°F-3.0°C 97% Calm Calm -- 30.07 in1018.3 mb - 0.00 in0.0 mm 0.00 in0.0 mm
09:24 AM 27.3°F-2.6°C 26.6°F-3.0°C 97% Calm Calm -- 30.07 in1018.3 mb - 0.00 in0.0 mm 0.00 in0.0 mm
09:30 AM 27.8°F-2.3°C 27.1°F-2.7°C 97% Calm Calm -- 30.07 in1018.3 mb - 0.00 in0.0 mm 0.00 in0.0 mm
09:35 AM 28.0°F-2.2°C 27.2°F-2.7°C 97% Calm Calm 1.1 mph1.8 kmh 30.06 in1017.9 mb - 0.00 in0.0 mm 0.00 in0.0 mm
09:41 AM 28.8°F-1.8°C 28.1°F-2.2°C 97% Calm Calm -- 30.06 in1017.9 mb - 0.00 in0.0 mm 0.00 in0.0 mm
09:46 AM 28.9°F-1.7°C 28.1°F-2.2°C 97% Calm Calm -- 30.06 in1017.9 mb - 0.00 in0.0 mm 0.00 in0.0 mm
09:52 AM 29.6°F-1.3°C 28.8°F-1.8°C 97% Calm Calm -- 30.06 in1017.9 mb - 0.00 in0.0 mm 0.00 in0.0 mm
09:58 AM 29.6°F-1.3°C 28.8°F-1.8°C 97% Calm Calm 1.1 mph1.8 kmh 30.06 in1017.9 mb - 0.00 in0.0 mm 0.00 in0.0 mm
10:03 AM 29.9°F-1.2°C 29.2°F-1.6°C 97% Calm Calm -- 30.05 in1017.6 mb - 0.00 in0.0 mm 0.00 in0.0 mm
10:09 AM 29.9°F-1.2°C 29.2°F-1.6°C 97% Calm Calm 1.1 mph1.8 kmh 30.05 in1017.6 mb - 0.00 in0.0 mm 0.00 in0.0 mm
10:15 AM 30.6°F-0.8°C 29.8°F-1.2°C 97% Calm Calm 1.1 mph1.8 kmh 30.05 in1017.6 mb - 0.00 in0.0 mm 0.00 in0.0 mm
10:20 AM 30.8°F-0.7°C 30.1°F-1.1°C 97% Calm Calm 1.1 mph1.8 kmh 30.05 in1017.6 mb - 0.00 in0.0 mm 0.00 in0.0 mm
10:26 AM 31.3°F-0.4°C 30.5°F-0.8°C 97% Calm Calm 1.1 mph1.8 kmh 30.05 in1017.6 mb - 0.00 in0.0 mm 0.00 in0.0 mm
10:31 AM 31.3°F-0.4°C 30.5°F-0.8°C 97% Calm Calm -- 30.05 in1017.6 mb - 0.00 in0.0 mm 0.00 in0.0 mm
10:37 AM 31.4°F-0.3°C 30.6°F-0.8°C 97% Calm Calm 1.1 mph1.8 kmh 30.05 in1017.6 mb - 0.00 in0.0 mm 0.00 in0.0 mm
10:43 AM 31.5°F-0.3°C 30.7°F-0.7°C 97% 1.1 mph SE1.8 kmh SE 2.3 mph3.7 kmh 30.05 in1017.6 mb - 0.00 in0.0 mm 0.00 in0.0 mm
10:48 AM 31.8°F-0.1°C 31.0°F-0.6°C 97% Calm Calm -- 30.05 in1017.6 mb - 0.00 in0.0 mm 0.00 in0.0 mm
10:54 AM 32.3°F0.2°C 31.5°F-0.3°C 97% Calm Calm 1.1 mph1.8 kmh 30.05 in1017.6 mb - 0.00 in0.0 mm 0.00 in0.0 mm
11:00 AM 33.0°F0.6°C 32.3°F0.2°C 97% Calm Calm -- 30.04 in1017.3 mb - 0.00 in0.0 mm 0.00 in0.0 mm
11:05 AM 33.0°F0.6°C 32.0°F0.0°C 96% Calm Calm 1.1 mph1.8 kmh 30.04 in1017.3 mb - 0.00 in0.0 mm 0.00 in0.0 mm
11:11 AM 33.1°F0.6°C 31.8°F-0.1°C 95% 1.1 mph SSE1.8 kmh SSE 3.4 mph5.5 kmh 30.04 in1017.3 mb - 0.00 in0.0 mm 0.00 in0.0 mm
11:16 AM 33.1°F0.6°C 31.8°F-0.1°C 95% 2.3 mph SSE3.7 kmh SSE 3.4 mph5.5 kmh 30.03 in1016.9 mb - 0.00 in0.0 mm 0.00 in0.0 mm
11:22 AM 33.2°F0.7°C 31.9°F-0.1°C 95% Calm Calm -- 30.02 in1016.6 mb - 0.00 in0.0 mm 0.00 in0.0 mm
11:28 AM 33.2°F0.7°C 31.9°F-0.1°C 95% Calm Calm -- 30.02 in1016.6 mb - 0.00 in0.0 mm 0.00 in0.0 mm
11:33 AM 33.3°F0.7°C 32.0°F0.0°C 95% Calm Calm 2.3 mph3.7 kmh 30.02 in1016.6 mb - 0.00 in0.0 mm 0.00 in0.0 mm
11:39 AM 33.3°F0.7°C 31.8°F-0.1°C 94% Calm Calm 2.3 mph3.7 kmh 30.01 in1016.3 mb - 0.00 in0.0 mm 0.00 in0.0 mm
11:45 AM 33.5°F0.8°C 32.0°F0.0°C 94% Calm Calm 2.3 mph3.7 kmh 30.02 in1016.6 mb - 0.00 in0.0 mm 0.00 in0.0 mm
11:50 AM 33.5°F0.8°C 32.0°F0.0°C 94% Calm Calm 1.1 mph1.8 kmh 30.01 in1016.3 mb - 0.00 in0.0 mm 0.00 in0.0 mm
11:56 AM 33.6°F0.9°C 31.8°F-0.1°C 93% Calm Calm 1.1 mph1.8 kmh 30.01 in1016.3 mb - 0.00 in0.0 mm 0.00 in0.0 mm
12:01 PM 33.6°F0.9°C 31.8°F-0.1°C 93% 2.3 mph SSE3.7 kmh SSE 3.4 mph5.5 kmh 30.01 in1016.3 mb - 0.00 in0.0 mm 0.00 in0.0 mm
12:07 PM 33.6°F0.9°C 31.8°F-0.1°C 93% 1.1 mph SE1.8 kmh SE 1.1 mph1.8 kmh 30.01 in1016.3 mb - 0.00 in0.0 mm 0.00 in0.0 mm
12:13 PM 33.7°F0.9°C 31.9°F-0.1°C 93% 1.1 mph ESE1.8 kmh ESE 1.1 mph1.8 kmh 30.01 in1016.3 mb - 0.00 in0.0 mm 0.00 in0.0 mm
12:18 PM 33.7°F0.9°C 31.6°F-0.2°C 92% Calm Calm 2.3 mph3.7 kmh 30.00 in1015.9 mb - 0.00 in0.0 mm 0.00 in0.0 mm
12:24 PM 33.7°F0.9°C 31.6°F-0.2°C 92% Calm Calm 1.1 mph1.8 kmh 30.00 in1015.9 mb - 0.00 in0.0 mm 0.00 in0.0 mm
12:30 PM 33.7°F0.9°C 31.6°F-0.2°C 92% Calm Calm 1.1 mph1.8 kmh 30.00 in1015.9 mb - 0.00 in0.0 mm 0.00 in0.0 mm
12:35 PM 33.7°F0.9°C 31.6°F-0.2°C 92% Calm Calm 2.3 mph3.7 kmh 29.99 in1015.6 mb - 0.00 in0.0 mm 0.00 in0.0 mm
12:41 PM 33.8°F1.0°C 31.7°F-0.2°C 92% Calm Calm -- 29.99 in1015.6 mb - 0.00 in0.0 mm 0.00 in0.0 mm
12:46 PM 33.8°F1.0°C 31.7°F-0.2°C 92% Calm Calm 1.1 mph1.8 kmh 30.00 in1015.9 mb - 0.00 in0.0 mm 0.00 in0.0 mm
12:52 PM 33.9°F1.1°C 31.8°F-0.1°C 92% Calm Calm -- 29.99 in1015.6 mb - 0.00 in0.0 mm 0.00 in0.0 mm
12:58 PM 33.9°F1.1°C 31.6°F-0.2°C 91% 1.1 mph SSE1.8 kmh SSE 2.3 mph3.7 kmh 29.99 in1015.6 mb - 0.00 in0.0 mm 0.00 in0.0 mm
01:03 PM 34.0°F1.1°C 31.6°F-0.2°C 91% Calm Calm 1.1 mph1.8 kmh 29.98 in1015.2 mb - 0.00 in0.0 mm 0.00 in0.0 mm
01:09 PM 34.0°F1.1°C 31.6°F-0.2°C 91% Calm Calm 3.4 mph5.5 kmh 29.98 in1015.2 mb - 0.00 in0.0 mm 0.00 in0.0 mm
01:15 PM 34.1°F1.2°C 31.5°F-0.3°C 90% 1.1 mph SE1.8 kmh SE 3.4 mph5.5 kmh 29.98 in1015.2 mb - 0.00 in0.0 mm 0.00 in0.0 mm
01:20 PM 34.2°F1.2°C 31.3°F-0.4°C 89% 1.1 mph SSE1.8 kmh SSE 2.3 mph3.7 kmh 29.97 in1014.9 mb - 0.00 in0.0 mm 0.00 in0.0 mm
01:26 PM 34.3°F1.3°C 31.1°F-0.5°C 88% 1.1 mph SSE1.8 kmh SSE 2.3 mph3.7 kmh 29.95 in1014.2 mb - 0.00 in0.0 mm 0.00 in0.0 mm
01:31 PM 34.3°F1.3°C 31.1°F-0.5°C 88% 1.1 mph SSE1.8 kmh SSE 1.1 mph1.8 kmh 29.95 in1014.2 mb - 0.00 in0.0 mm 0.00 in0.0 mm
01:37 PM 34.3°F1.3°C 30.8°F-0.7°C 87% 1.1 mph SSE1.8 kmh SSE 3.4 mph5.5 kmh 29.96 in1014.6 mb - 0.00 in0.0 mm 0.00 in0.0 mm
01:43 PM 34.4°F1.3°C 30.6°F-0.8°C 86% Calm Calm 2.3 mph3.7 kmh 29.96 in1014.6 mb - 0.00 in0.0 mm 0.00 in0.0 mm
01:48 PM 34.5°F1.4°C 30.7°F-0.7°C 86% 1.1 mph SE1.8 kmh SE 2.3 mph3.7 kmh 29.95 in1014.2 mb - 0.00 in0.0 mm 0.00 in0.0 mm
01:54 PM 34.6°F1.4°C 30.6°F-0.8°C 85% 1.1 mph S1.8 kmh S 2.3 mph3.7 kmh 29.95 in1014.2 mb - 0.00 in0.0 mm 0.00 in0.0 mm
02:00 PM 34.6°F1.4°C 30.6°F-0.8°C 85% 1.1 mph S1.8 kmh S 1.1 mph1.8 kmh 29.94 in1013.9 mb - 0.00 in0.0 mm 0.00 in0.0 mm
02:05 PM 34.6°F1.4°C 30.6°F-0.8°C 85% Calm Calm 3.4 mph5.5 kmh 29.93 in1013.5 mb - 0.00 in0.0 mm 0.00 in0.0 mm
02:11 PM 34.7°F1.5°C 30.4°F-0.9°C 84% 1.1 mph WNW1.8 kmh WNW 3.4 mph5.5 kmh 29.93 in1013.5 mb - 0.00 in0.0 mm 0.00 in0.0 mm
02:16 PM 34.7°F1.5°C 30.4°F-0.9°C 84% Calm Calm 2.3 mph3.7 kmh 29.92 in1013.2 mb - 0.00 in0.0 mm 0.00 in0.0 mm
02:22 PM 34.7°F1.5°C 30.4°F-0.9°C 84% Calm Calm 3.4 mph5.5 kmh 29.92 in1013.2 mb - 0.00 in0.0 mm 0.00 in0.0 mm
02:28 PM 34.8°F1.6°C 30.5°F-0.8°C 84% 1.1 mph S1.8 kmh S 2.3 mph3.7 kmh 29.91 in1012.9 mb - 0.00 in0.0 mm 0.00 in0.0 mm
02:33 PM 34.8°F1.6°C 30.5°F-0.8°C 84% 1.1 mph SSE1.8 kmh SSE 3.4 mph5.5 kmh 29.91 in1012.9 mb - 0.00 in0.0 mm 0.00 in0.0 mm
02:39 PM 34.9°F1.6°C 30.5°F-0.8°C 84% 1.1 mph SE1.8 kmh SE 4.6 mph7.4 kmh 29.91 in1012.9 mb - 0.00 in0.0 mm 0.00 in0.0 mm
02:45 PM 35.0°F1.7°C 30.4°F-0.9°C 83% 1.1 mph SE1.8 kmh SE 3.4 mph5.5 kmh 29.90 in1012.5 mb - 0.00 in0.0 mm 0.00 in0.0 mm
02:50 PM 35.1°F1.7°C 30.5°F-0.8°C 83% 2.3 mph SE3.7 kmh SE 3.4 mph5.5 kmh 29.89 in1012.2 mb - 0.00 in0.0 mm 0.00 in0.0 mm
02:56 PM 35.2°F1.8°C 30.6°F-0.8°C 83% Calm Calm 2.3 mph3.7 kmh 29.89 in1012.2 mb - 0.00 in0.0 mm 0.00 in0.0 mm
03:01 PM 35.2°F1.8°C 30.6°F-0.8°C 83% Calm Calm 1.1 mph1.8 kmh 29.90 in1012.5 mb - 0.00 in0.0 mm 0.00 in0.0 mm
03:07 PM 35.2°F1.8°C 30.3°F-0.9°C 82% Calm Calm 1.1 mph1.8 kmh 29.89 in1012.2 mb - 0.00 in0.0 mm 0.00 in0.0 mm
03:13 PM 35.3°F1.8°C 30.4°F-0.9°C 82% Calm Calm 1.1 mph1.8 kmh 29.89 in1012.2 mb - 0.00 in0.0 mm 0.00 in0.0 mm
03:18 PM 35.3°F1.8°C 30.4°F-0.9°C 82% 1.1 mph SE1.8 kmh SE 2.3 mph3.7 kmh 29.89 in1012.2 mb - 0.00 in0.0 mm 0.00 in0.0 mm
03:24 PM 35.3°F1.8°C 30.4°F-0.9°C 82% 1.1 mph S1.8 kmh S 1.1 mph1.8 kmh 29.88 in1011.9 mb - 0.00 in0.0 mm 0.00 in0.0 mm
03:30 PM 35.2°F1.8°C 30.6°F-0.8°C 83% Calm Calm 1.1 mph1.8 kmh 29.88 in1011.9 mb - 0.00 in0.0 mm 0.00 in0.0 mm
03:35 PM 35.2°F1.8°C 30.6°F-0.8°C 83% Calm Calm 1.1 mph1.8 kmh 29.88 in1011.9 mb - 0.00 in0.0 mm 0.00 in0.0 mm
03:41 PM 35.3°F1.8°C 30.4°F-0.9°C 82% Calm Calm 1.1 mph1.8 kmh 29.88 in1011.9 mb - 0.00 in0.0 mm 0.00 in0.0 mm
03:46 PM 35.4°F1.9°C 30.5°F-0.8°C 82% 1.1 mph ESE1.8 kmh ESE 2.3 mph3.7 kmh 29.87 in1011.5 mb - 0.00 in0.0 mm 0.00 in0.0 mm
03:52 PM 35.5°F1.9°C 30.8°F-0.7°C 83% 1.1 mph SE1.8 kmh SE 3.4 mph5.5 kmh 29.86 in1011.2 mb - 0.00 in0.0 mm 0.00 in0.0 mm
03:58 PM 35.5°F1.9°C 30.8°F-0.7°C 83% 1.1 mph W1.8 kmh W 3.4 mph5.5 kmh 29.86 in1011.2 mb - 0.00 in0.0 mm 0.00 in0.0 mm
04:03 PM 35.7°F2.1°C 31.0°F-0.6°C 83% 1.1 mph SSE1.8 kmh SSE 1.1 mph1.8 kmh 29.85 in1010.8 mb - 0.00 in0.0 mm 0.00 in0.0 mm
04:09 PM 35.7°F2.1°C 31.0°F-0.6°C 83% 2.3 mph SE3.7 kmh SE 8.0 mph12.9 kmh 29.85 in1010.8 mb - 0.00 in0.0 mm 0.00 in0.0 mm
04:15 PM 35.9°F2.2°C 31.2°F-0.4°C 83% 2.3 mph SSE3.7 kmh SSE 4.6 mph7.4 kmh 29.84 in1010.5 mb - 0.00 in0.0 mm 0.00 in0.0 mm
04:20 PM 36.0°F2.2°C 31.4°F-0.3°C 83% 2.3 mph S3.7 kmh S 3.4 mph5.5 kmh 29.84 in1010.5 mb - 0.00 in0.0 mm 0.00 in0.0 mm
04:26 PM 36.2°F2.3°C 31.6°F-0.2°C 83% 1.1 mph SE1.8 kmh SE 3.4 mph5.5 kmh 29.83 in1010.2 mb - 0.00 in0.0 mm 0.00 in0.0 mm
04:31 PM 36.3°F2.4°C 31.6°F-0.2°C 83% 2.3 mph SSE3.7 kmh SSE 3.4 mph5.5 kmh 29.82 in1009.8 mb - 0.00 in0.0 mm 0.00 in0.0 mm
04:37 PM 36.5°F2.5°C 32.1°F0.1°C 84% 2.3 mph SSE3.7 kmh SSE 4.6 mph7.4 kmh 29.82 in1009.8 mb - 0.00 in0.0 mm 0.00 in0.0 mm
04:43 PM 36.5°F2.5°C 32.1°F0.1°C 84% 2.3 mph S3.7 kmh S 5.8 mph9.3 kmh 29.82 in1009.8 mb - 0.00 in0.0 mm 0.00 in0.0 mm
04:48 PM 36.6°F2.6°C 32.5°F0.3°C 85% 2.3 mph SE3.7 kmh SE 4.6 mph7.4 kmh 29.81 in1009.5 mb - 0.00 in0.0 mm 0.00 in0.0 mm
04:54 PM 36.7°F2.6°C 32.6°F0.3°C 85% 1.1 mph NE1.8 kmh NE 3.4 mph5.5 kmh 29.81 in1009.5 mb - 0.00 in0.0 mm 0.00 in0.0 mm
05:00 PM 36.8°F2.7°C 32.7°F0.4°C 85% 1.1 mph S1.8 kmh S 3.4 mph5.5 kmh 29.81 in1009.5 mb - 0.00 in0.0 mm 0.00 in0.0 mm
05:05 PM 36.8°F2.7°C 32.7°F0.4°C 85% 2.3 mph SE3.7 kmh SE 3.4 mph5.5 kmh 29.80 in1009.1 mb - 0.00 in0.0 mm 0.00 in0.0 mm
05:11 PM 37.1°F2.8°C 33.3°F0.7°C 86% 4.6 mph SE7.4 kmh SE 9.2 mph14.8 kmh 29.79 in1008.8 mb - 0.00 in0.0 mm 0.00 in0.0 mm
05:16 PM 37.1°F2.8°C 33.3°F0.7°C 86% 2.3 mph SW3.7 kmh SW 5.8 mph9.3 kmh 29.79 in1008.8 mb - 0.00 in0.0 mm 0.00 in0.0 mm
05:22 PM 37.2°F2.9°C 33.4°F0.8°C 86% 2.3 mph SE3.7 kmh SE 4.6 mph7.4 kmh 29.78 in1008.5 mb - 0.00 in0.0 mm 0.00 in0.0 mm
05:28 PM 37.1°F2.8°C 33.3°F0.7°C 86% 1.1 mph S1.8 kmh S 3.4 mph5.5 kmh 29.78 in1008.5 mb - 0.00 in0.0 mm 0.00 in0.0 mm
05:33 PM 37.0°F2.8°C 33.2°F0.7°C 86% 3.4 mph SE5.5 kmh SE 5.8 mph9.3 kmh 29.77 in1008.1 mb - 0.00 in0.0 mm 0.00 in0.0 mm
05:39 PM 37.0°F2.8°C 33.5°F0.8°C 87% 3.4 mph SSW5.5 kmh SSW 5.8 mph9.3 kmh 29.77 in1008.1 mb - 0.00 in0.0 mm 0.00 in0.0 mm
05:45 PM 36.9°F2.7°C 33.4°F0.8°C 87% 2.3 mph SE3.7 kmh SE 3.4 mph5.5 kmh 29.77 in1008.1 mb - 0.00 in0.0 mm 0.00 in0.0 mm
05:50 PM 36.9°F2.7°C 33.4°F0.8°C 87% 1.1 mph SE1.8 kmh SE 2.3 mph3.7 kmh 29.77 in1008.1 mb - 0.00 in0.0 mm 0.00 in0.0 mm
05:56 PM 36.9°F2.7°C 33.4°F0.8°C 87% 3.4 mph SE5.5 kmh SE 3.4 mph5.5 kmh 29.77 in1008.1 mb - 0.00 in0.0 mm 0.00 in0.0 mm
06:01 PM 36.9°F2.7°C 33.4°F0.8°C 87% 1.1 mph ESE1.8 kmh ESE 2.3 mph3.7 kmh 29.77 in1008.1 mb - 0.00 in0.0 mm 0.00 in0.0 mm
06:07 PM 36.8°F2.7°C 33.3°F0.7°C 87% 1.1 mph SSE1.8 kmh SSE 3.4 mph5.5 kmh 29.77 in1008.1 mb - 0.00 in0.0 mm 0.00 in0.0 mm
06:13 PM 36.8°F2.7°C 33.3°F0.7°C 87% 1.1 mph SSE1.8 kmh SSE 3.4 mph5.5 kmh 29.76 in1007.8 mb - 0.00 in0.0 mm 0.00 in0.0 mm
06:18 PM 36.8°F2.7°C 33.3°F0.7°C 87% 2.3 mph SE3.7 kmh SE 3.4 mph5.5 kmh 29.76 in1007.8 mb - 0.00 in0.0 mm 0.00 in0.0 mm
06:24 PM 36.8°F2.7°C 33.0°F0.6°C 86% 2.3 mph SE3.7 kmh SE 4.6 mph7.4 kmh 29.75 in1007.5 mb - 0.00 in0.0 mm 0.00 in0.0 mm
06:30 PM 36.7°F2.6°C 32.9°F0.5°C 86% 1.1 mph SE1.8 kmh SE 2.3 mph3.7 kmh 29.75 in1007.5 mb - 0.00 in0.0 mm 0.00 in0.0 mm
06:35 PM 36.5°F2.5°C 32.7°F0.4°C 86% 2.3 mph SE3.7 kmh SE 2.3 mph3.7 kmh 29.75 in1007.5 mb - 0.00 in0.0 mm 0.00 in0.0 mm
06:41 PM 36.4°F2.4°C 32.3°F0.2°C 85% 1.1 mph SE1.8 kmh SE 3.4 mph5.5 kmh 29.75 in1007.5 mb - 0.00 in0.0 mm 0.00 in0.0 mm
06:46 PM 36.3°F2.4°C 32.5°F0.3°C 86% 1.1 mph SE1.8 kmh SE 3.4 mph5.5 kmh 29.74 in1007.1 mb - 0.00 in0.0 mm 0.00 in0.0 mm
06:52 PM 36.3°F2.4°C 32.5°F0.3°C 86% 2.3 mph SE3.7 kmh SE 3.4 mph5.5 kmh 29.74 in1007.1 mb - 0.00 in0.0 mm 0.00 in0.0 mm
06:58 PM 36.1°F2.3°C 32.3°F0.2°C 86% 2.3 mph S3.7 kmh S 4.6 mph7.4 kmh 29.74 in1007.1 mb - 0.00 in0.0 mm 0.00 in0.0 mm
07:03 PM 36.0°F2.2°C 32.2°F0.1°C 86% 1.1 mph N1.8 kmh N 2.3 mph3.7 kmh 29.73 in1006.8 mb - 0.00 in0.0 mm 0.00 in0.0 mm
07:09 PM 35.9°F2.2°C 32.1°F0.1°C 86% 2.3 mph SE3.7 kmh SE 3.4 mph5.5 kmh 29.73 in1006.8 mb - 0.00 in0.0 mm 0.00 in0.0 mm
07:15 PM 35.8°F2.1°C 32.0°F0.0°C 86% Calm Calm 6.9 mph11.1 kmh 29.73 in1006.8 mb - 0.00 in0.0 mm 0.00 in0.0 mm
07:20 PM 35.8°F2.1°C 31.7°F-0.2°C 85% 2.3 mph SSE3.7 kmh SSE 2.3 mph3.7 kmh 29.74 in1007.1 mb - 0.00 in0.0 mm 0.00 in0.0 mm
07:26 PM 35.7°F2.1°C 31.6°F-0.2°C 85% 1.1 mph SE1.8 kmh SE 2.3 mph3.7 kmh 29.74 in1007.1 mb - 0.00 in0.0 mm 0.00 in0.0 mm
07:31 PM 35.7°F2.1°C 31.9°F-0.1°C 86% 1.1 mph N1.8 kmh N 3.4 mph5.5 kmh 29.74 in1007.1 mb - 0.00 in0.0 mm 0.00 in0.0 mm
07:37 PM 35.5°F1.9°C 31.7°F-0.2°C 86% 1.1 mph ESE1.8 kmh ESE 2.3 mph3.7 kmh 29.74 in1007.1 mb - 0.00 in0.0 mm 0.00 in0.0 mm
07:43 PM 35.4°F1.9°C 31.6°F-0.2°C 86% Calm Calm 1.1 mph1.8 kmh 29.74 in1007.1 mb - 0.00 in0.0 mm 0.00 in0.0 mm
07:48 PM 35.3°F1.8°C 31.5°F-0.3°C 86% 1.1 mph SSE1.8 kmh SSE 3.4 mph5.5 kmh 29.73 in1006.8 mb - 0.00 in0.0 mm 0.00 in0.0 mm
07:54 PM 35.2°F1.8°C 31.4°F-0.3°C 86% 1.1 mph SSE1.8 kmh SSE 2.3 mph3.7 kmh 29.72 in1006.4 mb - 0.00 in0.0 mm 0.00 in0.0 mm
08:00 PM 35.2°F1.8°C 31.4°F-0.3°C 86% Calm Calm 1.1 mph1.8 kmh 29.72 in1006.4 mb - 0.00 in0.0 mm 0.00 in0.0 mm
08:05 PM 35.1°F1.7°C 31.3°F-0.4°C 86% Calm Calm 2.3 mph3.7 kmh 29.72 in1006.4 mb - 0.00 in0.0 mm 0.00 in0.0 mm
08:11 PM 35.0°F1.7°C 31.2°F-0.4°C 86% 1.1 mph SSW1.8 kmh SSW 3.4 mph5.5 kmh 29.72 in1006.4 mb - 0.00 in0.0 mm 0.00 in0.0 mm
08:16 PM 35.0°F1.7°C 31.2°F-0.4°C 86% Calm Calm 1.1 mph1.8 kmh 29.71 in1006.1 mb - 0.00 in0.0 mm 0.00 in0.0 mm
08:22 PM 34.7°F1.5°C 31.2°F-0.4°C 87% 2.3 mph SSE3.7 kmh SSE 3.4 mph5.5 kmh 29.71 in1006.1 mb - 0.00 in0.0 mm 0.00 in0.0 mm
08:28 PM 34.7°F1.5°C 31.2°F-0.4°C 87% 1.1 mph SE1.8 kmh SE 2.3 mph3.7 kmh 29.71 in1006.1 mb - 0.00 in0.0 mm 0.00 in0.0 mm
08:33 PM 34.5°F1.4°C 31.1°F-0.5°C 87% Calm Calm 1.1 mph1.8 kmh 29.71 in1006.1 mb - 0.00 in0.0 mm 0.00 in0.0 mm
08:39 PM 34.6°F1.4°C 31.1°F-0.5°C 87% 2.3 mph S3.7 kmh S 5.8 mph9.3 kmh 29.71 in1006.1 mb - 0.00 in0.0 mm 0.00 in0.0 mm
08:45 PM 34.6°F1.4°C 31.1°F-0.5°C 87% Calm Calm -- 29.71 in1006.1 mb - 0.00 in0.0 mm 0.00 in0.0 mm
08:50 PM 34.5°F1.4°C 31.0°F-0.6°C 87% Calm Calm -- 29.71 in1006.1 mb - 0.00 in0.0 mm 0.00 in0.0 mm
08:56 PM 34.3°F1.3°C 30.9°F-0.6°C 87% 1.1 mph NNE1.8 kmh NNE 1.1 mph1.8 kmh 29.71 in1006.1 mb - 0.00 in0.0 mm 0.00 in0.0 mm
09:01 PM 34.3°F1.3°C 30.8°F-0.7°C 87% 1.1 mph ENE1.8 kmh ENE 1.1 mph1.8 kmh 29.71 in1006.1 mb - 0.00 in0.0 mm 0.00 in0.0 mm
09:07 PM 34.3°F1.3°C 30.8°F-0.7°C 87% Calm Calm 1.1 mph1.8 kmh 29.70 in1005.8 mb - 0.00 in0.0 mm 0.00 in0.0 mm
09:13 PM 34.3°F1.3°C 31.1°F-0.5°C 88% 1.1 mph ESE1.8 kmh ESE 2.3 mph3.7 kmh 29.71 in1006.1 mb - 0.00 in0.0 mm 0.00 in0.0 mm
09:18 PM 34.1°F1.2°C 30.9°F-0.6°C 88% 1.1 mph SE1.8 kmh SE 3.4 mph5.5 kmh 29.70 in1005.8 mb - 0.00 in0.0 mm 0.00 in0.0 mm
09:24 PM 34.1°F1.2°C 30.9°F-0.6°C 88% Calm Calm -- 29.70 in1005.8 mb - 0.00 in0.0 mm 0.00 in0.0 mm
09:30 PM 34.1°F1.2°C 31.0°F-0.6°C 88% Calm Calm 1.1 mph1.8 kmh 29.70 in1005.8 mb - 0.00 in0.0 mm 0.00 in0.0 mm
09:35 PM 34.3°F1.3°C 31.1°F-0.5°C 88% Calm Calm -- 29.69 in1005.4 mb - 0.00 in0.0 mm 0.00 in0.0 mm
09:41 PM 34.3°F1.3°C 31.1°F-0.5°C 88% Calm Calm 1.1 mph1.8 kmh 29.70 in1005.8 mb - 0.00 in0.0 mm 0.00 in0.0 mm
09:46 PM 34.3°F1.3°C 31.1°F-0.5°C 88% Calm Calm 1.1 mph1.8 kmh 29.69 in1005.4 mb - 0.00 in0.0 mm 0.00 in0.0 mm
09:52 PM 34.2°F1.2°C 31.0°F-0.6°C 88% Calm Calm -- 29.69 in1005.4 mb - 0.00 in0.0 mm 0.00 in0.0 mm
09:58 PM 34.1°F1.2°C 30.9°F-0.6°C 88% Calm Calm 1.1 mph1.8 kmh 29.69 in1005.4 mb - 0.00 in0.0 mm 0.00 in0.0 mm
10:03 PM 34.0°F1.1°C 31.1°F-0.5°C 89% Calm Calm -- 29.69 in1005.4 mb - 0.00 in0.0 mm 0.00 in0.0 mm
10:09 PM 33.8°F1.0°C 30.9°F-0.6°C 89% Calm Calm 1.1 mph1.8 kmh 29.69 in1005.4 mb - 0.00 in0.0 mm 0.00 in0.0 mm
10:15 PM 33.7°F0.9°C 30.8°F-0.7°C 89% 1.1 mph NW1.8 kmh NW 3.4 mph5.5 kmh 29.69 in1005.4 mb - 0.00 in0.0 mm 0.00 in0.0 mm
10:20 PM 33.7°F0.9°C 30.8°F-0.7°C 89% 1.1 mph WNW1.8 kmh WNW 1.1 mph1.8 kmh 29.69 in1005.4 mb - 0.00 in0.0 mm 0.00 in0.0 mm
10:26 PM 33.5°F0.8°C 30.6°F-0.8°C 89% 1.1 mph SSW1.8 kmh SSW 3.4 mph5.5 kmh 29.68 in1005.1 mb - 0.00 in0.0 mm 0.00 in0.0 mm
10:31 PM 33.4°F0.8°C 30.5°F-0.8°C 89% Calm Calm 1.1 mph1.8 kmh 29.68 in1005.1 mb - 0.00 in0.0 mm 0.00 in0.0 mm
10:37 PM 33.3°F0.7°C 30.7°F-0.7°C 90% Calm Calm 1.1 mph1.8 kmh 29.68 in1005.1 mb - 0.00 in0.0 mm 0.00 in0.0 mm
10:43 PM 33.1°F0.6°C 30.5°F-0.8°C 90% Calm Calm -- 29.68 in1005.1 mb - 0.00 in0.0 mm 0.00 in0.0 mm
10:48 PM 33.1°F0.6°C 30.4°F-0.9°C 90% Calm Calm 1.1 mph1.8 kmh 29.68 in1005.1 mb - 0.00 in0.0 mm 0.00 in0.0 mm
10:54 PM 33.1°F0.6°C 30.8°F-0.7°C 91% Calm Calm 1.1 mph1.8 kmh 29.68 in1005.1 mb - 0.00 in0.0 mm 0.00 in0.0 mm
11:00 PM 32.9°F0.5°C 30.3°F-0.9°C 90% Calm Calm -- 29.68 in1005.1 mb - 0.00 in0.0 mm 0.00 in0.0 mm
11:05 PM 32.9°F0.5°C 30.6°F-0.8°C 91% Calm Calm 1.1 mph1.8 kmh 29.68 in1005.1 mb - 0.00 in0.0 mm 0.00 in0.0 mm
11:11 PM 32.8°F0.4°C 30.5°F-0.8°C 91% Calm Calm 1.1 mph1.8 kmh 29.68 in1005.1 mb - 0.00 in0.0 mm 0.00 in0.0 mm
11:16 PM 32.8°F0.4°C 30.4°F-0.9°C 91% Calm Calm -- 29.68 in1005.1 mb - 0.00 in0.0 mm 0.00 in0.0 mm
11:22 PM 32.7°F0.4°C 30.6°F-0.8°C 92% Calm Calm 1.1 mph1.8 kmh 29.68 in1005.1 mb - 0.00 in0.0 mm 0.00 in0.0 mm
11:28 PM 32.5°F0.3°C 30.2°F-1.0°C 91% Calm Calm -- 29.68 in1005.1 mb - 0.00 in0.0 mm 0.00 in0.0 mm
11:33 PM 32.3°F0.2°C 30.2°F-1.0°C 92% Calm Calm 1.1 mph1.8 kmh 29.68 in1005.1 mb - 0.00 in0.0 mm 0.00 in0.0 mm
11:39 PM 32.2°F0.1°C 30.2°F-1.0°C 92% Calm Calm -- 29.68 in1005.1 mb - 0.00 in0.0 mm 0.00 in0.0 mm
11:45 PM 31.9°F-0.1°C 29.8°F-1.2°C 92% Calm Calm -- 29.67 in1004.7 mb - 0.00 in0.0 mm 0.00 in0.0 mm
11:50 PM 32.0°F0.0°C 30.2°F-1.0°C 93% Calm Calm 1.1 mph1.8 kmh 29.67 in1004.7 mb - 0.00 in0.0 mm 0.00 in0.0 mm
11:56 PM 32.0°F0.0°C 29.9°F-1.2°C 92% Calm Calm 2.3 mph3.7 kmh 29.67 in1004.7 mb - 0.00 in0.0 mm 0.00 in0.0 mm